sensor_id;sensor_type;location;lat;lon;timestamp;P1;durP1;ratioP1;P2;durP2;ratioP2
69910;SDS011;63555;49.920;17.868;2023-02-28T00:01:55;25.97;;;7.47;;
69910;SDS011;63555;49.920;17.868;2023-02-28T00:06:55;17.10;;;7.40;;
69910;SDS011;63555;49.920;17.868;2023-02-28T00:11:58;26.50;;;8.30;;
69910;SDS011;63555;49.920;17.868;2023-02-28T00:16:58;20.85;;;8.10;;
69910;SDS011;63555;49.920;17.868;2023-02-28T00:21:59;21.77;;;7.80;;
69910;SDS011;63555;49.920;17.868;2023-02-28T00:26:59;22.77;;;8.00;;
69910;SDS011;63555;49.920;17.868;2023-02-28T00:31:59;26.37;;;8.63;;
69910;SDS011;63555;49.920;17.868;2023-02-28T00:37:00;21.60;;;7.53;;
69910;SDS011;63555;49.920;17.868;2023-02-28T00:42:00;19.90;;;8.00;;
69910;SDS011;63555;49.920;17.868;2023-02-28T00:47:01;21.70;;;7.93;;
69910;SDS011;63555;49.920;17.868;2023-02-28T00:52:01;23.30;;;8.60;;
69910;SDS011;63555;49.920;17.868;2023-02-28T00:57:01;24.08;;;8.48;;
69910;SDS011;63555;49.920;17.868;2023-02-28T01:02:02;22.00;;;7.80;;
69910;SDS011;63555;49.920;17.868;2023-02-28T01:07:02;18.93;;;7.53;;
69910;SDS011;63555;49.920;17.868;2023-02-28T01:12:03;19.80;;;7.70;;
69910;SDS011;63555;49.920;17.868;2023-02-28T01:17:03;20.03;;;7.80;;
69910;SDS011;63555;49.920;17.868;2023-02-28T01:22:05;16.23;;;7.03;;
69910;SDS011;63555;49.920;17.868;2023-02-28T01:27:06;21.23;;;8.05;;
69910;SDS011;63555;49.920;17.868;2023-02-28T01:32:06;17.90;;;7.20;;
69910;SDS011;63555;49.920;17.868;2023-02-28T01:37:06;22.50;;;7.97;;
69910;SDS011;63555;49.920;17.868;2023-02-28T01:42:08;17.57;;;7.50;;
69910;SDS011;63555;49.920;17.868;2023-02-28T01:47:10;17.88;;;7.20;;
69910;SDS011;63555;49.920;17.868;2023-02-28T01:52:10;20.47;;;7.73;;
69910;SDS011;63555;49.920;17.868;2023-02-28T01:57:19;20.83;;;7.57;;
69910;SDS011;63555;49.920;17.868;2023-02-28T02:02:24;20.40;;;7.13;;
69910;SDS011;63555;49.920;17.868;2023-02-28T02:07:25;20.17;;;7.80;;
69910;SDS011;63555;49.920;17.868;2023-02-28T02:17:54;20.03;;;8.20;;
69910;SDS011;63555;49.920;17.868;2023-02-28T02:49:36;21.77;;;7.80;;
69910;SDS011;63555;49.920;17.868;2023-02-28T02:54:40;17.42;;;7.50;;
69910;SDS011;63555;49.920;17.868;2023-02-28T02:59:43;19.48;;;6.97;;
69910;SDS011;63555;49.920;17.868;2023-02-28T03:04:53;13.93;;;6.75;;
69910;SDS011;63555;49.920;17.868;2023-02-28T03:10:00;20.33;;;7.45;;
69910;SDS011;63555;49.920;17.868;2023-02-28T03:35:41;17.97;;;7.50;;
69910;SDS011;63555;49.920;17.868;2023-02-28T03:40:51;18.65;;;7.55;;
69910;SDS011;63555;49.920;17.868;2023-02-28T03:46:02;17.25;;;7.13;;
69910;SDS011;63555;49.920;17.868;2023-02-28T03:51:09;18.23;;;7.07;;
69910;SDS011;63555;49.920;17.868;2023-02-28T04:01:20;20.57;;;8.07;;
69910;SDS011;63555;49.920;17.868;2023-02-28T04:06:25;20.52;;;7.70;;
69910;SDS011;63555;49.920;17.868;2023-02-28T04:16:37;17.77;;;7.82;;
69910;SDS011;63555;49.920;17.868;2023-02-28T04:21:46;20.33;;;7.43;;
69910;SDS011;63555;49.920;17.868;2023-02-28T04:26:49;17.83;;;7.35;;
69910;SDS011;63555;49.920;17.868;2023-02-28T04:31:52;18.92;;;7.35;;
69910;SDS011;63555;49.920;17.868;2023-02-28T04:36:59;28.13;;;9.03;;
69910;SDS011;63555;49.920;17.868;2023-02-28T04:42:00;22.38;;;8.38;;
69910;SDS011;63555;49.920;17.868;2023-02-28T04:47:00;20.23;;;8.33;;
69910;SDS011;63555;49.920;17.868;2023-02-28T04:52:01;25.53;;;9.03;;
69910;SDS011;63555;49.920;17.868;2023-02-28T04:57:01;27.13;;;7.73;;
69910;SDS011;63555;49.920;17.868;2023-02-28T05:02:02;14.97;;;6.33;;
69910;SDS011;63555;49.920;17.868;2023-02-28T05:07:06;29.02;;;10.68;;
69910;SDS011;63555;49.920;17.868;2023-02-28T05:12:07;26.97;;;9.50;;
69910;SDS011;63555;49.920;17.868;2023-02-28T05:17:09;19.27;;;8.30;;
69910;SDS011;63555;49.920;17.868;2023-02-28T05:22:14;25.25;;;8.52;;
69910;SDS011;63555;49.920;17.868;2023-02-28T05:27:16;15.33;;;6.97;;
69910;SDS011;63555;49.920;17.868;2023-02-28T05:32:16;18.33;;;7.97;;
69910;SDS011;63555;49.920;17.868;2023-02-28T05:37:17;20.17;;;9.33;;
69910;SDS011;63555;49.920;17.868;2023-02-28T05:42:17;24.07;;;8.70;;
69910;SDS011;63555;49.920;17.868;2023-02-28T05:47:18;19.63;;;8.70;;
69910;SDS011;63555;49.920;17.868;2023-02-28T05:52:18;26.37;;;10.27;;
69910;SDS011;63555;49.920;17.868;2023-02-28T05:57:19;29.60;;;10.57;;
69910;SDS011;63555;49.920;17.868;2023-02-28T06:02:19;23.10;;;9.63;;
69910;SDS011;63555;49.920;17.868;2023-02-28T06:07:19;29.23;;;9.93;;
69910;SDS011;63555;49.920;17.868;2023-02-28T06:12:22;26.52;;;12.15;;
69910;SDS011;63555;49.920;17.868;2023-02-28T06:17:22;218.83;;;102.27;;
69910;SDS011;63555;49.920;17.868;2023-02-28T06:22:23;41.27;;;16.63;;
69910;SDS011;63555;49.920;17.868;2023-02-28T06:27:23;44.33;;;16.63;;
69910;SDS011;63555;49.920;17.868;2023-02-28T06:32:23;32.00;;;12.93;;
69910;SDS011;63555;49.920;17.868;2023-02-28T06:37:24;33.37;;;12.07;;
69910;SDS011;63555;49.920;17.868;2023-02-28T06:42:27;29.17;;;12.57;;
69910;SDS011;63555;49.920;17.868;2023-02-28T06:47:30;24.77;;;8.60;;
69910;SDS011;63555;49.920;17.868;2023-02-28T06:52:31;26.70;;;9.63;;
69910;SDS011;63555;49.920;17.868;2023-02-28T06:57:32;25.07;;;10.27;;
69910;SDS011;63555;49.920;17.868;2023-02-28T07:02:34;44.35;;;16.75;;
69910;SDS011;63555;49.920;17.868;2023-02-28T07:07:34;43.00;;;17.00;;
69910;SDS011;63555;49.920;17.868;2023-02-28T07:12:38;31.77;;;13.63;;
69910;SDS011;63555;49.920;17.868;2023-02-28T07:17:38;27.97;;;12.03;;
69910;SDS011;63555;49.920;17.868;2023-02-28T07:22:38;28.90;;;11.27;;
69910;SDS011;63555;49.920;17.868;2023-02-28T07:27:39;30.63;;;13.27;;
69910;SDS011;63555;49.920;17.868;2023-02-28T07:32:39;49.90;;;25.47;;
69910;SDS011;63555;49.920;17.868;2023-02-28T07:37:39;33.10;;;13.47;;
69910;SDS011;63555;49.920;17.868;2023-02-28T07:42:41;29.67;;;13.70;;
69910;SDS011;63555;49.920;17.868;2023-02-28T07:47:42;30.17;;;11.13;;
69910;SDS011;63555;49.920;17.868;2023-02-28T07:52:43;27.97;;;10.90;;
69910;SDS011;63555;49.920;17.868;2023-02-28T07:57:43;28.33;;;11.57;;
69910;SDS011;63555;49.920;17.868;2023-02-28T08:02:44;26.30;;;10.32;;
69910;SDS011;63555;49.920;17.868;2023-02-28T08:07:45;33.90;;;12.50;;
69910;SDS011;63555;49.920;17.868;2023-02-28T08:12:45;26.90;;;11.10;;
69910;SDS011;63555;49.920;17.868;2023-02-28T08:17:45;29.03;;;12.07;;
69910;SDS011;63555;49.920;17.868;2023-02-28T08:22:46;29.97;;;11.47;;
69910;SDS011;63555;49.920;17.868;2023-02-28T08:27:46;28.63;;;11.83;;
69910;SDS011;63555;49.920;17.868;2023-02-28T08:32:46;23.43;;;10.33;;
69910;SDS011;63555;49.920;17.868;2023-02-28T08:37:47;31.85;;;11.82;;
69910;SDS011;63555;49.920;17.868;2023-02-28T08:42:49;23.73;;;10.45;;
69910;SDS011;63555;49.920;17.868;2023-02-28T08:47:49;26.83;;;11.63;;
69910;SDS011;63555;49.920;17.868;2023-02-28T08:52:52;27.27;;;11.77;;
69910;SDS011;63555;49.920;17.868;2023-02-28T08:57:52;25.00;;;10.83;;
69910;SDS011;63555;49.920;17.868;2023-02-28T09:02:53;23.83;;;11.03;;
69910;SDS011;63555;49.920;17.868;2023-02-28T09:07:54;29.77;;;12.45;;
69910;SDS011;63555;49.920;17.868;2023-02-28T09:12:54;25.63;;;10.60;;
69910;SDS011;63555;49.920;17.868;2023-02-28T09:17:55;28.97;;;11.43;;
69910;SDS011;63555;49.920;17.868;2023-02-28T09:22:55;23.50;;;9.83;;
69910;SDS011;63555;49.920;17.868;2023-02-28T09:27:55;23.43;;;9.90;;
69910;SDS011;63555;49.920;17.868;2023-02-28T09:32:56;25.03;;;10.53;;
69910;SDS011;63555;49.920;17.868;2023-02-28T09:37:56;26.53;;;10.40;;
69910;SDS011;63555;49.920;17.868;2023-02-28T09:42:58;17.10;;;9.15;;
69910;SDS011;63555;49.920;17.868;2023-02-28T09:48:01;23.75;;;9.98;;
69910;SDS011;63555;49.920;17.868;2023-02-28T09:53:16;22.80;;;10.80;;
69910;SDS011;63555;49.920;17.868;2023-02-28T10:03:47;23.05;;;10.68;;
69910;SDS011;63555;49.920;17.868;2023-02-28T10:09:30;13.95;;;6.93;;
69910;SDS011;63555;49.920;17.868;2023-02-28T10:14:26;11.60;;;5.85;;
69910;SDS011;63555;49.920;17.868;2023-02-28T10:24:52;15.73;;;7.10;;
69910;SDS011;63555;49.920;17.868;2023-02-28T10:29:57;15.82;;;7.45;;
69910;SDS011;63555;49.920;17.868;2023-02-28T10:45:39;14.80;;;7.50;;
69910;SDS011;63555;49.920;17.868;2023-02-28T10:50:54;15.02;;;8.55;;
69910;SDS011;63555;49.920;17.868;2023-02-28T11:01:17;15.57;;;8.55;;
69910;SDS011;63555;49.920;17.868;2023-02-28T11:06:24;19.40;;;9.50;;
69910;SDS011;63555;49.920;17.868;2023-02-28T11:11:29;21.53;;;9.33;;
69910;SDS011;63555;49.920;17.868;2023-02-28T11:16:41;19.58;;;9.48;;
69910;SDS011;63555;49.920;17.868;2023-02-28T11:21:45;15.90;;;8.40;;
69910;SDS011;63555;49.920;17.868;2023-02-28T11:26:59;17.33;;;7.85;;
69910;SDS011;63555;49.920;17.868;2023-02-28T11:37:16;15.10;;;7.83;;
69910;SDS011;63555;49.920;17.868;2023-02-28T11:48:00;19.10;;;8.88;;
69910;SDS011;63555;49.920;17.868;2023-02-28T12:30:35;19.90;;;10.67;;
69910;SDS011;63555;49.920;17.868;2023-02-28T12:35:46;18.75;;;9.70;;
69910;SDS011;63555;49.920;17.868;2023-02-28T12:41:00;14.90;;;8.88;;
69910;SDS011;63555;49.920;17.868;2023-02-28T12:46:08;18.00;;;9.35;;
69910;SDS011;63555;49.920;17.868;2023-02-28T12:51:12;20.10;;;10.90;;
69910;SDS011;63555;49.920;17.868;2023-02-28T13:02:12;18.58;;;9.88;;
69910;SDS011;63555;49.920;17.868;2023-02-28T13:12:51;21.77;;;10.63;;
69910;SDS011;63555;49.920;17.868;2023-02-28T13:17:55;19.02;;;10.90;;
69910;SDS011;63555;49.920;17.868;2023-02-28T13:22:58;20.23;;;10.00;;
69910;SDS011;63555;49.920;17.868;2023-02-28T13:27:58;19.30;;;9.83;;
69910;SDS011;63555;49.920;17.868;2023-02-28T13:33:21;21.65;;;10.75;;
69910;SDS011;63555;49.920;17.868;2023-02-28T13:38:34;19.45;;;10.35;;
69910;SDS011;63555;49.920;17.868;2023-02-28T13:54:24;17.37;;;9.00;;
69910;SDS011;63555;49.920;17.868;2023-02-28T13:59:54;21.33;;;10.43;;
69910;SDS011;63555;49.920;17.868;2023-02-28T14:05:13;23.55;;;10.80;;
69910;SDS011;63555;49.920;17.868;2023-02-28T14:10:27;25.17;;;11.68;;
69910;SDS011;63555;49.920;17.868;2023-02-28T14:20:40;24.40;;;10.87;;
69910;SDS011;63555;49.920;17.868;2023-02-28T14:25:54;23.45;;;11.80;;
69910;SDS011;63555;49.920;17.868;2023-02-28T14:41:49;23.63;;;11.85;;
69910;SDS011;63555;49.920;17.868;2023-02-28T14:46:52;26.07;;;12.00;;
69910;SDS011;63555;49.920;17.868;2023-02-28T14:57:26;27.30;;;11.50;;
69910;SDS011;63555;49.920;17.868;2023-02-28T15:02:33;23.45;;;11.43;;
69910;SDS011;63555;49.920;17.868;2023-02-28T15:07:35;25.57;;;10.77;;
69910;SDS011;63555;49.920;17.868;2023-02-28T15:12:37;24.98;;;10.02;;
69910;SDS011;63555;49.920;17.868;2023-02-28T15:17:39;20.85;;;10.70;;
69910;SDS011;63555;49.920;17.868;2023-02-28T15:22:40;25.20;;;9.77;;
69910;SDS011;63555;49.920;17.868;2023-02-28T15:27:48;22.15;;;9.23;;
69910;SDS011;63555;49.920;17.868;2023-02-28T15:38:15;17.17;;;8.45;;
69910;SDS011;63555;49.920;17.868;2023-02-28T15:43:28;20.92;;;8.98;;
69910;SDS011;63555;49.920;17.868;2023-02-28T15:48:31;25.08;;;10.32;;
69910;SDS011;63555;49.920;17.868;2023-02-28T15:53:34;20.50;;;8.80;;
69910;SDS011;63555;49.920;17.868;2023-02-28T15:58:38;20.90;;;8.40;;
69910;SDS011;63555;49.920;17.868;2023-02-28T16:03:40;25.00;;;9.90;;
69910;SDS011;63555;49.920;17.868;2023-02-28T16:08:44;26.45;;;9.65;;
69910;SDS011;63555;49.920;17.868;2023-02-28T16:13:45;21.25;;;8.85;;
69910;SDS011;63555;49.920;17.868;2023-02-28T16:18:46;21.90;;;9.03;;
69910;SDS011;63555;49.920;17.868;2023-02-28T16:23:46;20.90;;;9.10;;
69910;SDS011;63555;49.920;17.868;2023-02-28T16:28:47;22.53;;;8.90;;
69910;SDS011;63555;49.920;17.868;2023-02-28T16:33:47;25.95;;;9.63;;
69910;SDS011;63555;49.920;17.868;2023-02-28T16:38:48;26.33;;;9.27;;
69910;SDS011;63555;49.920;17.868;2023-02-28T16:43:51;22.80;;;8.20;;
69910;SDS011;63555;49.920;17.868;2023-02-28T16:49:11;25.13;;;9.25;;
69910;SDS011;63555;49.920;17.868;2023-02-28T16:54:12;25.67;;;8.93;;
69910;SDS011;63555;49.920;17.868;2023-02-28T16:59:13;24.20;;;9.67;;
69910;SDS011;63555;49.920;17.868;2023-02-28T17:04:17;26.33;;;9.55;;
69910;SDS011;63555;49.920;17.868;2023-02-28T17:09:19;24.77;;;9.37;;
69910;SDS011;63555;49.920;17.868;2023-02-28T17:14:21;24.27;;;9.32;;
69910;SDS011;63555;49.920;17.868;2023-02-28T17:19:23;20.67;;;8.40;;
69910;SDS011;63555;49.920;17.868;2023-02-28T17:24:23;26.93;;;8.70;;
69910;SDS011;63555;49.920;17.868;2023-02-28T17:29:24;24.57;;;9.57;;
69910;SDS011;63555;49.920;17.868;2023-02-28T17:34:24;28.40;;;10.50;;
69910;SDS011;63555;49.920;17.868;2023-02-28T17:39:24;27.87;;;9.27;;
69910;SDS011;63555;49.920;17.868;2023-02-28T17:44:25;27.60;;;10.73;;
69910;SDS011;63555;49.920;17.868;2023-02-28T17:49:25;30.83;;;10.20;;
69910;SDS011;63555;49.920;17.868;2023-02-28T17:54:26;25.60;;;9.03;;
69910;SDS011;63555;49.920;17.868;2023-02-28T17:59:26;29.93;;;9.90;;
69910;SDS011;63555;49.920;17.868;2023-02-28T18:04:33;26.30;;;9.48;;
69910;SDS011;63555;49.920;17.868;2023-02-28T18:09:33;34.37;;;11.13;;
69910;SDS011;63555;49.920;17.868;2023-02-28T18:14:33;34.17;;;11.97;;
69910;SDS011;63555;49.920;17.868;2023-02-28T18:19:34;41.73;;;13.37;;
69910;SDS011;63555;49.920;17.868;2023-02-28T18:24:34;43.53;;;15.10;;
69910;SDS011;63555;49.920;17.868;2023-02-28T18:29:35;38.93;;;13.90;;
69910;SDS011;63555;49.920;17.868;2023-02-28T18:34:36;52.90;;;17.98;;
69910;SDS011;63555;49.920;17.868;2023-02-28T18:39:37;53.07;;;18.67;;
69910;SDS011;63555;49.920;17.868;2023-02-28T18:44:38;69.97;;;22.20;;
69910;SDS011;63555;49.920;17.868;2023-02-28T18:49:38;57.67;;;19.60;;
69910;SDS011;63555;49.920;17.868;2023-02-28T18:54:39;76.60;;;31.80;;
69910;SDS011;63555;49.920;17.868;2023-02-28T18:59:39;137.40;;;48.27;;
69910;SDS011;63555;49.920;17.868;2023-02-28T19:04:40;103.67;;;37.50;;
69910;SDS011;63555;49.920;17.868;2023-02-28T19:09:41;90.35;;;34.67;;
69910;SDS011;63555;49.920;17.868;2023-02-28T19:14:41;89.23;;;32.10;;
69910;SDS011;63555;49.920;17.868;2023-02-28T19:19:41;91.33;;;33.00;;
69910;SDS011;63555;49.920;17.868;2023-02-28T19:24:42;92.33;;;34.10;;
69910;SDS011;63555;49.920;17.868;2023-02-28T19:29:44;99.33;;;34.73;;
69910;SDS011;63555;49.920;17.868;2023-02-28T19:34:47;87.97;;;29.93;;
69910;SDS011;63555;49.920;17.868;2023-02-28T19:39:48;87.63;;;32.70;;
69910;SDS011;63555;49.920;17.868;2023-02-28T19:44:48;90.80;;;31.00;;
69910;SDS011;63555;49.920;17.868;2023-02-28T19:49:48;48.93;;;19.37;;
69910;SDS011;63555;49.920;17.868;2023-02-28T19:54:53;56.97;;;20.42;;
69910;SDS011;63555;49.920;17.868;2023-02-28T19:59:53;68.37;;;25.60;;
69910;SDS011;63555;49.920;17.868;2023-02-28T20:04:54;69.97;;;25.67;;
69910;SDS011;63555;49.920;17.868;2023-02-28T20:09:56;91.38;;;32.58;;
69910;SDS011;63555;49.920;17.868;2023-02-28T20:14:56;120.50;;;40.33;;
69910;SDS011;63555;49.920;17.868;2023-02-28T20:19:58;102.10;;;36.90;;
69910;SDS011;63555;49.920;17.868;2023-02-28T20:24:59;80.37;;;30.20;;
69910;SDS011;63555;49.920;17.868;2023-02-28T20:30:00;92.47;;;30.10;;
69910;SDS011;63555;49.920;17.868;2023-02-28T20:35:00;100.17;;;32.60;;
69910;SDS011;63555;49.920;17.868;2023-02-28T20:40:01;90.30;;;31.47;;
69910;SDS011;63555;49.920;17.868;2023-02-28T20:45:03;69.40;;;28.25;;
69910;SDS011;63555;49.920;17.868;2023-02-28T20:50:04;46.13;;;17.53;;
69910;SDS011;63555;49.920;17.868;2023-02-28T20:55:05;54.15;;;20.23;;
69910;SDS011;63555;49.920;17.868;2023-02-28T21:00:06;59.38;;;21.60;;
69910;SDS011;63555;49.920;17.868;2023-02-28T21:05:08;58.45;;;20.77;;
69910;SDS011;63555;49.920;17.868;2023-02-28T21:10:09;48.90;;;19.13;;
69910;SDS011;63555;49.920;17.868;2023-02-28T21:15:10;42.77;;;16.80;;
69910;SDS011;63555;49.920;17.868;2023-02-28T21:20:10;40.22;;;15.13;;
69910;SDS011;63555;49.920;17.868;2023-02-28T21:25:11;35.60;;;13.67;;
69910;SDS011;63555;49.920;17.868;2023-02-28T21:30:11;38.97;;;14.63;;
69910;SDS011;63555;49.920;17.868;2023-02-28T21:35:12;46.70;;;16.13;;
69910;SDS011;63555;49.920;17.868;2023-02-28T21:40:12;41.80;;;15.57;;
69910;SDS011;63555;49.920;17.868;2023-02-28T21:45:13;42.63;;;16.50;;
69910;SDS011;63555;49.920;17.868;2023-02-28T21:50:13;40.30;;;16.50;;
69910;SDS011;63555;49.920;17.868;2023-02-28T21:55:14;39.57;;;13.50;;
69910;SDS011;63555;49.920;17.868;2023-02-28T22:00:14;35.17;;;13.63;;
69910;SDS011;63555;49.920;17.868;2023-02-28T22:05:15;40.13;;;15.68;;
69910;SDS011;63555;49.920;17.868;2023-02-28T22:10:16;51.00;;;17.70;;
69910;SDS011;63555;49.920;17.868;2023-02-28T22:15:16;38.50;;;13.87;;
69910;SDS011;63555;49.920;17.868;2023-02-28T22:20:17;32.10;;;12.50;;
69910;SDS011;63555;49.920;17.868;2023-02-28T22:25:17;41.40;;;12.87;;
69910;SDS011;63555;49.920;17.868;2023-02-28T22:30:18;34.47;;;13.07;;
69910;SDS011;63555;49.920;17.868;2023-02-28T22:35:18;35.03;;;13.73;;
69910;SDS011;63555;49.920;17.868;2023-02-28T22:40:19;34.13;;;14.60;;
69910;SDS011;63555;49.920;17.868;2023-02-28T22:45:20;33.90;;;13.40;;
69910;SDS011;63555;49.920;17.868;2023-02-28T22:50:20;39.40;;;14.80;;
69910;SDS011;63555;49.920;17.868;2023-02-28T22:55:20;37.63;;;15.87;;
69910;SDS011;63555;49.920;17.868;2023-02-28T23:00:21;49.27;;;17.23;;
69910;SDS011;63555;49.920;17.868;2023-02-28T23:05:21;39.90;;;15.33;;
69910;SDS011;63555;49.920;17.868;2023-02-28T23:10:21;39.80;;;12.80;;
69910;SDS011;63555;49.920;17.868;2023-02-28T23:15:22;31.40;;;13.00;;
69910;SDS011;63555;49.920;17.868;2023-02-28T23:20:22;27.58;;;11.63;;
69910;SDS011;63555;49.920;17.868;2023-02-28T23:25:23;30.33;;;11.93;;
69910;SDS011;63555;49.920;17.868;2023-02-28T23:30:23;34.50;;;12.82;;
69910;SDS011;63555;49.920;17.868;2023-02-28T23:35:24;31.50;;;11.30;;
69910;SDS011;63555;49.920;17.868;2023-02-28T23:40:24;28.40;;;11.30;;
69910;SDS011;63555;49.920;17.868;2023-02-28T23:45:24;30.67;;;11.02;;
69910;SDS011;63555;49.920;17.868;2023-02-28T23:50:26;27.27;;;11.83;;
69910;SDS011;63555;49.920;17.868;2023-02-28T23:55:26;37.77;;;13.67;;
